createdAt,value
2022-10-22T00:01:04.046Z,2.10
2022-10-22T00:03:32.313Z,1.80
2022-10-22T00:06:00.343Z,2.60
2022-10-22T00:08:28.629Z,1.47
2022-10-22T00:10:56.902Z,2.10
2022-10-22T00:13:24.969Z,1.70
2022-10-22T00:15:54.296Z,1.80
2022-10-22T00:18:22.748Z,1.50
2022-10-22T00:20:50.706Z,2.07
2022-10-22T00:23:18.645Z,1.57
2022-10-22T00:25:46.695Z,2.37
2022-10-22T00:28:15.229Z,2.50
2022-10-22T00:30:43.240Z,2.10
2022-10-22T00:33:12.567Z,1.97
2022-10-22T00:35:40.581Z,2.23
2022-10-22T00:38:08.666Z,1.73
2022-10-22T00:40:36.657Z,2.10
2022-10-22T00:43:04.655Z,2.00
2022-10-22T00:45:32.712Z,2.60
2022-10-22T00:48:04.589Z,2.33
2022-10-22T00:50:38.800Z,1.83
2022-10-22T00:53:11.822Z,2.10
2022-10-22T00:55:41.134Z,2.13
2022-10-22T00:58:09.421Z,2.90
2022-10-22T01:00:37.972Z,2.60
2022-10-22T01:03:06.461Z,2.80
2022-10-22T01:05:43.808Z,2.87
2022-10-22T01:08:20.871Z,3.57
2022-10-22T01:10:56.249Z,2.90
2022-10-22T01:13:37.907Z,2.93
2022-10-22T01:16:12.521Z,2.77
2022-10-22T01:18:49.619Z,2.60
2022-10-22T01:21:27.710Z,2.67
2022-10-22T01:24:21.959Z,3.17
2022-10-22T01:27:01.682Z,2.77
2022-10-22T01:29:34.778Z,2.70
2022-10-22T01:32:07.985Z,2.90
2022-10-22T01:34:37.261Z,2.90
2022-10-22T01:37:05.631Z,2.67
2022-10-22T01:39:36.065Z,3.30
2022-10-22T01:42:04.099Z,3.30
2022-10-22T01:47:18.962Z,3.60
2022-10-22T01:50:15.578Z,2.83
2022-10-22T01:52:55.765Z,2.60
2022-10-22T01:55:31.325Z,2.53
2022-10-22T01:58:10.002Z,2.80
2022-10-22T02:00:45.513Z,2.63
2022-10-22T02:03:22.902Z,2.50
2022-10-22T02:05:56.447Z,3.13
2022-10-22T02:08:28.917Z,2.53
2022-10-22T02:10:58.543Z,3.30
2022-10-22T02:13:31.411Z,3.40
2022-10-22T02:16:02.426Z,3.30
2022-10-22T02:18:36.366Z,3.30
2022-10-22T02:23:41.367Z,3.40
2022-10-22T02:26:19.777Z,3.33
2022-10-22T02:28:55.048Z,2.70
2022-10-22T02:31:27.619Z,3.30
2022-10-22T02:33:59.019Z,2.87
2022-10-22T02:36:27.877Z,3.10
2022-10-22T02:38:56.744Z,3.40
2022-10-22T02:41:25.209Z,2.80
2022-10-22T02:43:55.938Z,3.70
2022-10-22T02:46:26.693Z,3.20
2022-10-22T02:48:54.709Z,3.60
2022-10-22T02:51:22.940Z,2.90
2022-10-22T02:53:50.901Z,3.80
2022-10-22T02:56:18.979Z,3.00
2022-10-22T02:58:46.973Z,2.93
2022-10-22T03:01:16.173Z,3.00
2022-10-22T03:03:45.740Z,3.47
2022-10-22T03:06:13.846Z,2.50
2022-10-22T03:08:42.298Z,3.00
2022-10-22T03:11:10.314Z,2.90
2022-10-22T03:13:38.312Z,3.20
2022-10-22T03:16:06.991Z,3.17
2022-10-22T03:18:35.116Z,3.10
2022-10-22T03:21:10.826Z,3.87
2022-10-22T03:23:39.886Z,3.63
2022-10-22T03:26:09.165Z,2.87
2022-10-22T03:28:38.069Z,2.93
2022-10-22T03:31:06.226Z,3.30
2022-10-22T03:33:34.253Z,3.00
2022-10-22T03:36:02.275Z,3.23
2022-10-22T03:38:32.174Z,3.63
2022-10-22T03:41:00.259Z,3.60
2022-10-22T03:43:28.422Z,3.40
2022-10-22T03:45:56.423Z,2.60
2022-10-22T03:48:24.695Z,3.47
2022-10-22T03:50:52.677Z,3.57
2022-10-22T03:53:20.615Z,3.40
2022-10-22T03:55:50.140Z,2.80
2022-10-22T03:58:18.213Z,3.10
2022-10-22T04:00:46.233Z,3.40
2022-10-22T04:03:14.290Z,3.17
2022-10-22T04:05:42.321Z,3.63
2022-10-22T04:08:10.611Z,3.40
2022-10-22T04:10:38.619Z,4.07
2022-10-22T04:13:07.943Z,3.93
2022-10-22T04:15:36.008Z,3.57
2022-10-22T04:18:04.069Z,2.77
2022-10-22T04:20:32.106Z,3.00
2022-10-22T04:23:00.042Z,3.17
2022-10-22T04:25:28.014Z,3.37
2022-10-22T04:27:55.998Z,3.40
2022-10-22T04:30:25.352Z,3.50
2022-10-22T04:32:53.346Z,2.90
2022-10-22T04:35:21.336Z,3.33
2022-10-22T04:37:49.362Z,2.90
2022-10-22T04:40:17.495Z,3.80
2022-10-22T04:42:45.534Z,3.00
2022-10-22T04:45:15.560Z,4.00
2022-10-22T04:47:44.931Z,3.30
2022-10-22T04:50:13.494Z,3.27
2022-10-22T04:52:41.465Z,3.50
2022-10-22T04:55:10.006Z,2.87
2022-10-22T04:57:38.124Z,3.37
2022-10-22T05:00:07.521Z,3.00
2022-10-22T05:02:35.589Z,4.03
2022-10-22T05:05:05.531Z,3.50
2022-10-22T05:07:33.531Z,3.07
2022-10-22T05:10:02.281Z,3.37
2022-10-22T05:12:30.883Z,3.80
2022-10-22T05:14:58.872Z,2.70
2022-10-22T05:17:27.224Z,3.57
2022-10-22T05:19:55.207Z,3.03
2022-10-22T05:22:24.559Z,2.47
2022-10-22T05:24:52.521Z,3.80
2022-10-22T05:27:20.548Z,2.47
2022-10-22T05:29:48.537Z,2.83
2022-10-22T05:32:16.530Z,2.63
2022-10-22T05:34:44.809Z,3.10
2022-10-22T05:37:12.823Z,3.30
2022-10-22T05:39:42.142Z,3.00
2022-10-22T05:42:10.118Z,3.33
2022-10-22T05:44:38.993Z,3.13
2022-10-22T05:47:07.002Z,2.80
2022-10-22T05:49:35.181Z,2.57
2022-10-22T05:52:03.149Z,3.50
2022-10-22T05:54:31.122Z,3.27
2022-10-22T05:57:00.534Z,2.80
2022-10-22T05:59:28.554Z,2.57
2022-10-22T06:01:56.596Z,3.60
2022-10-22T06:04:24.671Z,3.10
2022-10-22T06:06:54.169Z,4.07
2022-10-22T06:09:25.046Z,3.13
2022-10-22T06:11:53.410Z,2.10
2022-10-22T06:14:23.309Z,2.80
2022-10-22T06:16:51.866Z,2.43
2022-10-22T06:19:21.413Z,3.10
2022-10-22T06:21:49.976Z,2.50
2022-10-22T06:24:18.067Z,2.57
2022-10-22T06:26:46.054Z,2.50
2022-10-22T06:29:14.173Z,1.90
2022-10-22T06:31:43.542Z,2.10
2022-10-22T06:34:13.785Z,2.63
2022-10-22T06:36:42.690Z,2.40
2022-10-22T06:39:12.791Z,2.70
2022-10-22T06:41:40.822Z,3.00
2022-10-22T06:44:08.880Z,2.00
2022-10-22T06:46:39.049Z,2.60
2022-10-22T06:49:14.049Z,2.13
2022-10-22T06:51:42.304Z,2.50
2022-10-22T06:54:10.512Z,2.03
2022-10-22T06:56:38.527Z,2.37
2022-10-22T06:59:06.567Z,2.23
2022-10-22T07:01:36.877Z,2.83
2022-10-22T07:04:05.745Z,2.30
2022-10-22T07:06:35.107Z,2.23
2022-10-22T07:09:03.257Z,2.10
2022-10-22T07:11:38.634Z,2.00
2022-10-22T07:14:06.650Z,2.10
2022-10-22T07:16:34.612Z,2.10
2022-10-22T07:19:03.213Z,1.77
2022-10-22T07:21:32.138Z,2.67
2022-10-22T07:24:02.040Z,1.80
2022-10-22T07:26:32.584Z,2.50
2022-10-22T07:29:01.007Z,2.03
2022-10-22T07:31:29.678Z,2.27
2022-10-22T07:33:57.970Z,1.97
2022-10-22T07:36:26.224Z,2.40
2022-10-22T07:38:58.628Z,2.47
2022-10-22T07:41:28.738Z,1.63
2022-10-22T07:43:56.788Z,1.60
2022-10-22T07:46:25.470Z,2.23
2022-10-22T07:48:53.613Z,1.77
2022-10-22T07:51:21.634Z,1.90
2022-10-22T07:53:49.693Z,1.70
2022-10-22T07:56:17.664Z,1.43
2022-10-22T07:58:47.054Z,1.47
2022-10-22T08:01:15.658Z,1.73
2022-10-22T08:03:43.730Z,1.47
2022-10-22T08:06:13.733Z,1.40
2022-10-22T08:08:42.077Z,1.40
2022-10-22T08:11:11.513Z,1.30
2022-10-22T08:13:44.094Z,1.03
2022-10-22T08:16:15.342Z,1.17
2022-10-22T08:18:43.595Z,1.63
2022-10-22T08:21:12.315Z,1.13
2022-10-22T08:23:40.737Z,1.30
2022-10-22T08:26:09.060Z,1.00
2022-10-22T08:28:37.900Z,0.90
2022-10-22T08:31:07.338Z,0.90
2022-10-22T08:33:38.664Z,1.20
2022-10-22T08:36:07.806Z,1.20
2022-10-22T08:38:36.248Z,1.13
2022-10-22T08:41:11.190Z,2.03
2022-10-22T08:44:01.231Z,1.20
2022-10-22T08:46:47.953Z,0.90
2022-10-22T08:49:22.498Z,0.90
2022-10-22T08:51:51.453Z,1.27
2022-10-22T08:54:28.014Z,1.07
2022-10-22T08:57:20.148Z,1.23
2022-10-22T08:59:55.273Z,0.90
2022-10-22T09:02:36.322Z,0.90
2022-10-22T09:05:19.069Z,0.97
2022-10-22T09:07:50.179Z,0.83
2022-10-22T09:10:19.288Z,1.43
2022-10-22T09:12:48.979Z,1.20
2022-10-22T09:15:18.438Z,0.87
2022-10-22T09:17:59.750Z,1.40
2022-10-22T09:20:38.805Z,0.93
2022-10-22T09:23:27.634Z,0.83
2022-10-22T09:25:57.257Z,1.10
2022-10-22T09:28:25.382Z,1.00
2022-10-22T09:30:53.809Z,0.60
2022-10-22T09:33:26.088Z,1.10
2022-10-22T09:35:57.997Z,0.87
2022-10-22T09:38:29.347Z,1.03
2022-10-22T09:41:00.135Z,0.83
2022-10-22T09:43:28.159Z,1.07
2022-10-22T09:46:01.157Z,1.20
2022-10-22T09:48:32.130Z,0.73
2022-10-22T09:51:07.265Z,0.90
2022-10-22T09:53:40.523Z,0.83
2022-10-22T09:56:17.915Z,1.47
2022-10-22T09:58:49.262Z,0.70
2022-10-22T10:01:20.588Z,1.07
2022-10-22T10:03:50.223Z,1.20
2022-10-22T10:06:24.177Z,1.07
2022-10-22T10:08:53.709Z,1.00
2022-10-22T10:11:32.513Z,0.97
2022-10-22T10:14:11.685Z,0.90
2022-10-22T10:16:54.015Z,1.00
2022-10-22T10:19:39.369Z,1.07
2022-10-22T10:22:17.725Z,0.90
2022-10-22T10:25:04.012Z,0.83
2022-10-22T10:27:38.914Z,0.80
2022-10-22T10:30:14.154Z,1.00
2022-10-22T10:33:03.084Z,0.90
2022-10-22T10:35:39.285Z,2.30
2022-10-22T10:38:28.851Z,0.93
2022-10-22T10:41:07.732Z,0.90
2022-10-22T10:43:42.266Z,0.80
2022-10-22T10:46:19.429Z,1.20
2022-10-22T10:48:51.827Z,1.10
2022-10-22T10:51:36.564Z,1.20
2022-10-22T10:54:19.485Z,1.07
2022-10-22T10:56:52.775Z,0.80
2022-10-22T10:59:33.372Z,0.97
2022-10-22T11:02:19.869Z,0.70
2022-10-22T11:05:13.299Z,1.47
2022-10-22T11:07:50.818Z,0.70
2022-10-22T11:10:29.732Z,0.90
2022-10-22T11:13:03.372Z,1.67
2022-10-22T11:15:34.947Z,1.40
2022-10-22T11:18:12.417Z,1.30
2022-10-22T11:20:54.799Z,1.40
2022-10-22T11:23:28.672Z,1.70
2022-10-22T11:25:58.085Z,1.53
2022-10-22T11:28:30.193Z,1.03
2022-10-22T11:31:03.817Z,0.90
2022-10-22T11:33:40.938Z,2.80
2022-10-22T11:36:11.473Z,2.00
2022-10-22T11:38:39.513Z,0.97
2022-10-22T11:41:13.770Z,0.77
2022-10-22T11:43:59.512Z,0.97
2022-10-22T11:46:39.711Z,1.17
2022-10-22T11:49:19.484Z,2.07
2022-10-22T11:51:48.326Z,2.67
2022-10-22T11:54:33.163Z,0.87
2022-10-22T11:57:21.774Z,1.03
2022-10-22T11:59:52.897Z,1.00
2022-10-22T12:02:42.809Z,1.43
2022-10-22T12:05:35.125Z,0.80
2022-10-22T12:08:16.080Z,1.13
2022-10-22T12:10:57.301Z,0.90
2022-10-22T12:13:29.198Z,0.93
2022-10-22T12:15:59.835Z,1.00
2022-10-22T12:18:32.849Z,0.80
2022-10-22T12:21:00.854Z,1.10
2022-10-22T12:23:35.214Z,0.90
2022-10-22T12:26:05.199Z,0.97
2022-10-22T12:28:41.330Z,1.10
2022-10-22T12:31:17.441Z,1.13
2022-10-22T12:33:45.701Z,0.90
2022-10-22T12:36:18.575Z,0.90
2022-10-22T12:38:48.275Z,0.70
2022-10-22T12:41:16.684Z,0.80
2022-10-22T12:43:46.178Z,0.70
2022-10-22T12:46:16.421Z,1.03
2022-10-22T12:48:46.324Z,0.97
2022-10-22T12:51:19.917Z,0.93
2022-10-22T12:53:50.395Z,1.83
2022-10-22T12:56:24.252Z,1.50
2022-10-22T12:58:58.978Z,0.93
2022-10-22T13:01:30.019Z,0.70
2022-10-22T13:04:19.364Z,1.30
2022-10-22T13:06:49.359Z,0.90
2022-10-22T13:09:23.735Z,0.73
2022-10-22T13:11:59.757Z,1.00
2022-10-22T13:14:32.913Z,1.07
2022-10-22T13:17:14.945Z,0.77
2022-10-22T13:19:47.228Z,0.90
2022-10-22T13:22:40.292Z,0.80
2022-10-22T13:25:23.577Z,0.80
2022-10-22T13:27:54.129Z,0.70
2022-10-22T13:30:25.829Z,0.90
2022-10-22T13:32:56.714Z,0.80
2022-10-22T13:35:26.715Z,0.80
2022-10-22T13:37:55.015Z,0.90
2022-10-22T13:40:23.219Z,0.90
2022-10-22T13:42:51.207Z,0.80
2022-10-22T13:45:19.977Z,1.03
2022-10-22T13:47:52.958Z,0.70
2022-10-22T13:50:22.461Z,0.80
2022-10-22T13:52:53.876Z,0.87
2022-10-22T13:55:25.496Z,1.00
2022-10-22T13:57:56.124Z,0.70
2022-10-22T14:00:24.883Z,0.80
2022-10-22T14:02:57.926Z,0.90
2022-10-22T14:05:25.984Z,0.80
2022-10-22T14:07:54.348Z,0.80
2022-10-22T14:10:24.390Z,0.70
2022-10-22T14:12:53.568Z,1.03
2022-10-22T14:15:24.755Z,0.83
2022-10-22T14:17:57.389Z,0.90
2022-10-22T14:20:28.828Z,0.83
2022-10-22T14:22:57.485Z,0.87
2022-10-22T14:25:27.867Z,0.70
2022-10-22T14:27:56.554Z,1.30
2022-10-22T14:30:26.278Z,0.93
2022-10-22T14:32:55.629Z,0.70
2022-10-22T14:35:24.072Z,0.80
2022-10-22T14:37:52.665Z,0.90
2022-10-22T14:40:21.852Z,0.97
2022-10-22T14:42:50.407Z,0.80
2022-10-22T14:45:21.259Z,0.90
2022-10-22T14:47:49.976Z,0.90
2022-10-22T14:50:20.327Z,1.23
2022-10-22T14:52:48.511Z,0.70
2022-10-22T14:55:18.500Z,0.73
2022-10-22T14:57:47.147Z,1.40
2022-10-22T15:00:17.505Z,1.27
2022-10-22T15:02:45.515Z,0.90
2022-10-22T15:05:13.611Z,0.70
2022-10-22T15:07:43.376Z,0.80
2022-10-22T15:10:12.022Z,0.70
2022-10-22T15:12:40.042Z,0.93
2022-10-22T15:15:08.985Z,0.90
2022-10-22T15:17:37.009Z,0.80
2022-10-22T15:20:06.222Z,0.80
2022-10-22T15:22:35.982Z,0.70
2022-10-22T15:25:08.027Z,0.80
2022-10-22T15:27:36.586Z,0.90
2022-10-22T15:30:05.919Z,1.03
2022-10-22T15:32:34.122Z,0.90
2022-10-22T15:35:02.454Z,0.83
2022-10-22T15:37:30.850Z,0.90
2022-10-22T15:40:00.418Z,0.80
2022-10-22T15:42:29.815Z,0.90
2022-10-22T15:44:59.694Z,0.73
2022-10-22T15:47:29.555Z,0.90
2022-10-22T15:49:57.872Z,0.93
2022-10-22T15:52:26.071Z,1.13
2022-10-22T15:54:54.363Z,0.90
2022-10-22T15:57:22.354Z,1.10
2022-10-22T15:59:52.129Z,1.00
2022-10-22T16:02:20.299Z,1.00
2022-10-22T16:04:48.323Z,0.90
2022-10-22T16:07:18.050Z,1.10
2022-10-22T16:09:49.336Z,1.33
2022-10-22T16:12:17.460Z,1.30
2022-10-22T16:14:45.486Z,1.30
2022-10-22T16:17:14.799Z,0.90
2022-10-22T16:19:43.018Z,1.63
2022-10-22T16:22:13.714Z,1.13
2022-10-22T16:24:41.761Z,1.20
2022-10-22T16:27:10.903Z,1.80
2022-10-22T16:29:39.803Z,0.93
2022-10-22T16:32:08.098Z,0.87
2022-10-22T16:34:37.461Z,1.07
2022-10-22T16:37:09.956Z,0.87
2022-10-22T16:39:38.412Z,0.90
2022-10-22T16:42:06.547Z,0.97
2022-10-22T16:44:34.645Z,1.30
2022-10-22T16:47:02.993Z,1.57
2022-10-22T16:49:31.164Z,1.30
2022-10-22T16:52:00.519Z,0.90
2022-10-22T16:54:28.637Z,1.00
2022-10-22T16:56:56.633Z,1.10
2022-10-22T16:59:24.851Z,0.93
2022-10-22T17:01:54.482Z,1.20
2022-10-22T17:04:23.555Z,1.10
2022-10-22T17:06:51.519Z,1.00
2022-10-22T17:09:21.156Z,1.20
2022-10-22T17:11:49.334Z,1.70
2022-10-22T17:14:17.296Z,1.37
2022-10-22T17:16:48.758Z,1.20
2022-10-22T17:19:17.014Z,1.40
2022-10-22T17:21:45.083Z,1.07
2022-10-22T17:24:13.150Z,1.30
2022-10-22T17:26:43.197Z,1.40
2022-10-22T17:29:11.848Z,1.13
2022-10-22T17:31:41.231Z,1.40
2022-10-22T17:34:11.771Z,1.77
2022-10-22T17:36:39.989Z,1.00
2022-10-22T17:39:09.658Z,1.97
2022-10-22T17:41:38.944Z,1.30
2022-10-22T17:44:13.671Z,1.30
2022-10-22T17:46:43.752Z,1.13
2022-10-22T17:49:16.621Z,1.13
2022-10-22T17:51:44.773Z,0.80
2022-10-22T17:54:14.075Z,1.57
2022-10-22T17:56:42.218Z,1.67
2022-10-22T17:59:15.101Z,1.50
2022-10-22T18:01:45.592Z,1.10
2022-10-22T18:04:16.303Z,1.47
2022-10-22T18:06:46.076Z,1.20
2022-10-22T18:09:18.423Z,1.20
2022-10-22T18:11:47.760Z,1.30
2022-10-22T18:14:18.560Z,1.10
2022-10-22T18:16:47.437Z,1.17
2022-10-22T18:19:18.157Z,1.00
2022-10-22T18:21:46.216Z,1.30
2022-10-22T18:24:15.346Z,1.30
2022-10-22T18:26:43.626Z,1.47
2022-10-22T18:29:14.834Z,1.10
2022-10-22T18:31:44.167Z,1.60
2022-10-22T18:34:12.907Z,1.20
2022-10-22T18:36:42.423Z,1.23
2022-10-22T18:39:15.725Z,1.50
2022-10-22T18:41:44.272Z,1.97
2022-10-22T18:44:14.331Z,2.17
2022-10-22T18:46:43.771Z,5.20
2022-10-22T18:49:18.369Z,7.63
2022-10-22T18:51:48.510Z,5.77
2022-10-22T18:54:23.260Z,3.47
2022-10-22T18:56:52.438Z,2.63
2022-10-22T18:59:22.609Z,2.40
2022-10-22T19:01:53.402Z,2.33
2022-10-22T19:04:21.573Z,1.70
2022-10-22T19:06:49.686Z,1.90
2022-10-22T19:09:18.633Z,1.60
2022-10-22T19:11:46.882Z,2.10
2022-10-22T19:14:19.199Z,1.30
2022-10-22T19:16:47.941Z,1.57
2022-10-22T19:19:19.727Z,2.00
2022-10-22T19:21:48.387Z,1.50
2022-10-22T19:24:17.764Z,1.20
2022-10-22T19:26:46.249Z,1.43
2022-10-22T19:29:16.249Z,1.60
2022-10-22T19:31:44.825Z,1.60
2022-10-22T19:34:12.860Z,1.50
2022-10-22T19:36:42.233Z,1.50
2022-10-22T19:39:10.262Z,1.43
2022-10-22T19:41:38.271Z,1.43
2022-10-22T19:44:06.265Z,1.50
2022-10-22T19:46:34.460Z,2.30
2022-10-22T19:49:03.841Z,1.63
2022-10-22T19:51:33.747Z,1.43
2022-10-22T19:54:05.381Z,1.80
2022-10-22T19:56:35.014Z,1.77
2022-10-22T19:59:03.802Z,1.50
2022-10-22T20:01:32.711Z,1.63
2022-10-22T20:04:01.442Z,2.00
2022-10-22T20:06:29.706Z,1.87
2022-10-22T20:08:58.125Z,1.70
2022-10-22T20:11:30.277Z,1.90
2022-10-22T20:13:58.727Z,1.60
2022-10-22T20:16:30.017Z,1.80
2022-10-22T20:19:02.051Z,1.50
2022-10-22T20:21:30.430Z,3.47
2022-10-22T20:23:58.805Z,3.37
2022-10-22T20:26:29.146Z,2.37
2022-10-22T20:28:57.928Z,1.63
2022-10-22T20:31:27.814Z,1.60
2022-10-22T20:33:57.399Z,2.17
2022-10-22T20:36:26.335Z,1.93
2022-10-22T20:38:58.858Z,1.87
2022-10-22T20:41:28.587Z,1.57
2022-10-22T20:43:57.010Z,1.70
2022-10-22T20:46:27.888Z,2.20
2022-10-22T20:49:00.163Z,1.70
2022-10-22T20:51:28.282Z,1.50
2022-10-22T20:53:56.367Z,1.50
2022-10-22T20:56:24.980Z,1.70
2022-10-22T20:59:04.109Z,1.83
2022-10-22T21:01:34.022Z,1.70
2022-10-22T21:04:02.200Z,1.87
2022-10-22T21:06:30.778Z,1.87
2022-10-22T21:08:58.929Z,2.10
2022-10-22T21:11:27.164Z,2.30
2022-10-22T21:13:56.586Z,3.00
2022-10-22T21:16:24.727Z,1.87
2022-10-22T21:18:52.940Z,1.40
2022-10-22T21:21:21.093Z,2.07
2022-10-22T21:23:50.219Z,1.87
2022-10-22T21:26:18.908Z,2.07
2022-10-22T21:28:47.083Z,1.60
2022-10-22T21:31:21.883Z,2.00
2022-10-22T21:33:51.183Z,1.73
2022-10-22T21:36:22.682Z,1.70
2022-10-22T21:38:52.899Z,1.90
2022-10-22T21:41:23.035Z,1.67
2022-10-22T21:43:51.623Z,2.33
2022-10-22T21:46:22.721Z,1.67
2022-10-22T21:48:54.662Z,1.73
2022-10-22T21:51:25.386Z,1.87
2022-10-22T21:53:55.152Z,1.83
2022-10-22T21:56:26.123Z,1.77
2022-10-22T21:58:54.663Z,1.70
2022-10-22T22:01:24.830Z,2.50
2022-10-22T22:03:53.413Z,1.97
2022-10-22T22:06:23.786Z,2.50
2022-10-22T22:08:54.066Z,2.60
2022-10-22T22:11:24.572Z,2.30
2022-10-22T22:13:53.071Z,1.70
2022-10-22T22:16:27.251Z,2.43
2022-10-22T22:18:57.080Z,2.43
2022-10-22T22:21:25.503Z,1.70
2022-10-22T22:23:53.705Z,3.00
2022-10-22T22:26:26.736Z,2.20
2022-10-22T22:28:57.819Z,2.23
2022-10-22T22:31:29.015Z,2.10
2022-10-22T22:34:00.940Z,2.00
2022-10-22T22:36:29.881Z,2.40
2022-10-22T22:38:58.111Z,2.30
2022-10-22T22:41:26.226Z,3.20
2022-10-22T22:46:23.317Z,1.93
2022-10-22T22:48:53.008Z,2.83
2022-10-22T22:51:21.266Z,2.37
2022-10-22T22:53:49.248Z,1.90
2022-10-22T22:56:19.076Z,1.90
2022-10-22T22:58:47.180Z,2.43
2022-10-22T23:01:18.129Z,2.33
2022-10-22T23:03:47.829Z,2.93
2022-10-22T23:06:17.283Z,2.00
2022-10-22T23:08:45.686Z,1.73
2022-10-22T23:11:15.009Z,2.03
2022-10-22T23:13:43.669Z,1.93
2022-10-22T23:16:15.548Z,1.63
2022-10-22T23:18:43.862Z,1.90
2022-10-22T23:21:15.587Z,2.30
2022-10-22T23:23:47.059Z,2.30
2022-10-22T23:26:16.903Z,1.80
2022-10-22T23:28:44.949Z,2.00
2022-10-22T23:31:14.875Z,2.50
2022-10-22T23:33:43.222Z,1.90
2022-10-22T23:36:12.265Z,2.10
2022-10-22T23:38:41.466Z,1.87
2022-10-22T23:41:11.115Z,2.00
2022-10-22T23:43:39.693Z,2.10
2022-10-22T23:46:09.597Z,2.10
2022-10-22T23:48:39.056Z,2.20
2022-10-22T23:51:08.842Z,3.13
2022-10-22T23:53:37.005Z,2.60
2022-10-22T23:56:06.575Z,1.97
2022-10-22T23:58:36.256Z,1.70
